Portstewart, United Kingdom
Current Conditions -  °F | °C
As of 5:20 AM on Thursday 23 Oct 2014 (Local Time) from EGPI Reporting Station
Broken Clouds Broken Clouds  
Wind Chill: 55°   Ceiling: 1300
Heat Index: 55°   Visibility: 6mi
Dew Point: 52°   Wind: 17mph
Humidity: 88%   Direction: 210°SSW
Pressure: 29.8"   Gusts: NA
Location:  55.18°N, 6.71°W
Report Text: EGPI 230420Z AUTO 21015KT 9999 BKN013/// SCT033/// 13/11 Q1009 RERA
Loading
Personal Weather Stations






























Interactive Weather Map
Tropical Storm Tracking
New forecast layout! Learn more

10-Day Weather Forecast

Advertisements
Track Severe Weather on mobile